Nearby METAR Reports

 

KSJC - San Jose, California, USA
Distance from station: NØ 14km
Opdateret: 25/09/2018 22:53
Klart
Klart
 Vind retning NNV
Vind: NNV 7 km/h
Temperatur: 26°C
Dugpunkt: 10°C
Fugtighed: 37%
Barometer: 1012.9 hPa
Clouds: Klart
Visibility: 16 km
2018/09/25 20:53 KSJC 252053Z 33004KT 10SM CLR 26/10 A2991 RMK AO2 SLP129 T02610100
KNUQ - Moffett Nas/Mtn, California, USA
Distance from station: N 14km
Opdateret: 25/09/2018 22:56
Klart
Klart
 Vind retning N
Vind: N 15 km/h
Temperatur: 23°C
Dugpunkt: 13°C
Fugtighed: 53%
Barometer: 1013.2 hPa
Clouds: Klart
Visibility: 16 km
2018/09/25 20:56 KNUQ 252056Z 36008KT 10SM CLR 23/13 A2992 RMK AO2 SLP135 T02280128 58013 $
 
KPAO - Palo Alto, California, USA
Distance from station: NNV 23km
Opdateret: 25/09/2018 22:47
Klart
Klart
 Vind retning N
Vind: N 19 km/h
Temperatur: 22°C
Dugpunkt: 15°C
Fugtighed: 65%
Barometer: 1013.9 hPa
Clouds: Klart
Visibility: 13 km
2018/09/25 20:47 KPAO 252047Z 35010KT 8SM SKC 22/15 A2994 RMK PAEW R RWY31
KRHV - San Jose/Reid, California, USA
Distance from station: ØNØ 19km
Opdateret: 25/09/2018 22:47
Klart
Klart
 Vind retning NNV
Vind: NNV 11 km/h
Temperatur: 29°C
Dugpunkt: 9°C
Fugtighed: 29%
Barometer: 1012.5 hPa
Clouds: Klart
Visibility: 16 km
2018/09/25 20:47 KRHV 252047Z 33006KT 10SM SKC 29/09 A2990
 
KOAK - Oakland, California, USA
Distance from station: NNV 50km
Opdateret: 25/09/2018 22:53
Few Clouds
Few Clouds
 Vind retning VNV
Vind: VNV 26 km/h
Temperatur: 19°C
Dugpunkt: 12°C
Fugtighed: 64%
Barometer: 1013.9 hPa
Clouds: Few Clouds
Visibility: 16 km
Cloud details: Few Clouds 244 m
2018/09/25 20:53 KOAK 252053Z 29014KT 10SM FEW008 19/12 A2994 RMK AO2 SLP138 T01940122 56013
KSQL - San Carlos Airpo, California, USA
Distance from station: NV 34km
Opdateret: 25/09/2018 22:50
Haze, Klart
Haze, Klart
 Vind retning N
Vind: N 17 km/h
Temperatur: 22°C
Dugpunkt: 12°C
Fugtighed: 53%
Barometer: 1013.5 hPa
Oversigt: Haze
Clouds: Klart
Visibility: 11 km
2018/09/25 20:50 KSQL 252050Z 35009KT 7SM HZ SKC 22/12 A2993
 
KSFO - San Francisco, California, USA
Distance from station: NV 49km
Opdateret: 25/09/2018 22:56
Klart
Klart
 Vind retning VNV
Vind: VNV 31 km/h
Temperatur: 19°C
Dugpunkt: 11°C
Fugtighed: 60%
Barometer: 1013.2 hPa
Clouds: Klart
Visibility: 16 km
2018/09/25 20:56 KSFO 252056Z 30017KT 10SM CLR 19/11 A2992 RMK AO2 SLP130 T01940106 58015 $
KE16 - San Martin, California, USA
Distance from station: ØSØ 43km
Opdateret: 25/09/2018 23:05
Klart
Klart
 Vind retning SSV
Vind: SSV 6 km/h
Temperatur: 31°C
Dugpunkt: 4°C
Fugtighed: 18%
Barometer: 1013.2 hPa
Clouds: Klart
Visibility: 16 km
2018/09/25 21:05 KE16 252105Z AUTO 21003KT 10SM CLR 31/04 A2992 RMK AO2
 
KWVI - Watsonville, California, USA
Distance from station: SSØ 44km
Opdateret: 25/09/2018 22:53
Klart
Klart
 Vind retning VSV
Vind: VSV 15 km/h
Temperatur: 17°C
Dugpunkt: 11°C
Fugtighed: 68%
Barometer: 1014.9 hPa
Clouds: Klart
Visibility: 16 km
2018/09/25 20:53 KWVI 252053Z AUTO 25008KT 10SM CLR 17/11 A2997 RMK AO2 SLP148 T01720111 58003
KHAF - Half Moon Bay, California, USA
Distance from station: VNV 50km
Opdateret: 25/09/2018 23:35
Overskyet
Overskyet
 Vind retning SSV
Vind: SSV 11 km/h
Temperatur: 14°C
Dugpunkt: 12°C
Fugtighed: 88%
Barometer: 1015.2 hPa
Clouds: Overskyet
Visibility: 11 km
Cloud details: Overskyet 183 m
2018/09/25 21:35 KHAF 252135Z AUTO 21006KT 7SM OVC006 14/12 A2998 RMK AO2
 
KHWD - Hayward, California, USA
Distance from station: N 44km
Opdateret: 25/09/2018 22:54
Klart
Klart
 Vind retning V
Vind: V 15 km/h
Temperatur: 24°C
Dugpunkt: 14°C
Fugtighed: 54%
Barometer: 1013.2 hPa
Clouds: Klart
Visibility: 16 km
2018/09/25 20:54 KHWD 252054Z 27008KT 10SM CLR 24/14 A2992 RMK AO2 SLP141 T02390139 56014
KLVK - Livermore, California, USA
Distance from station: NNØ 51km
Opdateret: 25/09/2018 22:53
Klart
Klart
 
Temperatur: 32°C
Dugpunkt: 1°C
Fugtighed: 14%
Barometer: 1012.2 hPa
Clouds: Klart
Visibility: 16 km
2018/09/25 20:53 KLVK 252053Z 10SM CLR 32/01 A2989 RMK AO2 SLP119 T03220006 56016